Cottage Grove, Tennessee
Current Conditions -  °F | °C
As of 11:55 PM on Saturday 20 Dec 2014 (Local Time) from KPHT Reporting Station
Clear Clear  
Wind Chill: -7°   Ceiling: Unl
Heat Index: -4°   Visibility: 6mi
Dew Point: -5°   Wind: 5mph
Humidity: 93%   Direction: 60°ENE
Pressure: 30.26"   Gusts: NA
Location:  36.38°N, 88.48°W
Report Text: KPHT 210555Z AUTO 06004KT 6SM CLR M04/M05 A3026 RMK
Loading
Personal Weather Stations






























Interactive Weather Map New forecast layout! Learn more

10-Day Weather Forecast

Advertisements
Track Severe Weather on mobile